sensor_id;sensor_type;location;lat;lon;timestamp;temperature;humidity
44359;DHT22;30077;52.474;13.326;2023-04-30T00:02:58;9.10;99.90
44359;DHT22;30077;52.474;13.326;2023-04-30T00:08:00;9.00;99.90
44359;DHT22;30077;52.474;13.326;2023-04-30T00:13:01;8.90;99.90
44359;DHT22;30077;52.474;13.326;2023-04-30T00:18:01;8.80;99.90
44359;DHT22;30077;52.474;13.326;2023-04-30T00:23:02;8.80;99.90
44359;DHT22;30077;52.474;13.326;2023-04-30T00:28:03;8.70;99.90
44359;DHT22;30077;52.474;13.326;2023-04-30T00:33:03;8.70;99.90
44359;DHT22;30077;52.474;13.326;2023-04-30T00:38:05;8.60;99.90
44359;DHT22;30077;52.474;13.326;2023-04-30T00:43:05;8.60;99.90
44359;DHT22;30077;52.474;13.326;2023-04-30T00:48:06;8.60;99.90
44359;DHT22;30077;52.474;13.326;2023-04-30T00:53:07;8.40;99.90
44359;DHT22;30077;52.474;13.326;2023-04-30T00:58:07;8.30;99.90
44359;DHT22;30077;52.474;13.326;2023-04-30T01:03:07;8.30;99.90
44359;DHT22;30077;52.474;13.326;2023-04-30T01:08:09;8.20;99.90
44359;DHT22;30077;52.474;13.326;2023-04-30T01:13:29;8.10;99.90
44359;DHT22;30077;52.474;13.326;2023-04-30T01:18:38;8.10;99.90
44359;DHT22;30077;52.474;13.326;2023-04-30T01:29:07;8.00;99.90
44359;DHT22;30077;52.474;13.326;2023-04-30T01:34:09;7.90;99.90
44359;DHT22;30077;52.474;13.326;2023-04-30T01:45:12;7.80;99.90
44359;DHT22;30077;52.474;13.326;2023-04-30T01:55:45;7.70;99.90
44359;DHT22;30077;52.474;13.326;2023-04-30T02:00:47;7.70;99.90
44359;DHT22;30077;52.474;13.326;2023-04-30T02:05:49;7.60;99.90
44359;DHT22;30077;52.474;13.326;2023-04-30T02:10:49;7.60;99.90
44359;DHT22;30077;52.474;13.326;2023-04-30T02:15:50;7.50;99.90
44359;DHT22;30077;52.474;13.326;2023-04-30T02:20:50;7.50;99.90
44359;DHT22;30077;52.474;13.326;2023-04-30T02:25:51;7.40;99.90
44359;DHT22;30077;52.474;13.326;2023-04-30T02:30:51;7.40;99.90
44359;DHT22;30077;52.474;13.326;2023-04-30T02:35:52;7.40;99.90
44359;DHT22;30077;52.474;13.326;2023-04-30T02:40:54;7.40;99.90
44359;DHT22;30077;52.474;13.326;2023-04-30T02:45:55;7.30;99.90
44359;DHT22;30077;52.474;13.326;2023-04-30T02:50:55;7.20;99.90
44359;DHT22;30077;52.474;13.326;2023-04-30T02:55:56;7.10;99.90
44359;DHT22;30077;52.474;13.326;2023-04-30T03:00:58;7.00;99.90
44359;DHT22;30077;52.474;13.326;2023-04-30T03:05:58;7.00;99.90
44359;DHT22;30077;52.474;13.326;2023-04-30T03:10:59;6.80;99.90
44359;DHT22;30077;52.474;13.326;2023-04-30T03:16:01;6.80;99.90
44359;DHT22;30077;52.474;13.326;2023-04-30T03:21:03;6.70;99.90
44359;DHT22;30077;52.474;13.326;2023-04-30T03:26:04;6.60;99.90
44359;DHT22;30077;52.474;13.326;2023-04-30T03:31:05;6.60;99.90
44359;DHT22;30077;52.474;13.326;2023-04-30T03:36:05;6.60;99.90
44359;DHT22;30077;52.474;13.326;2023-04-30T03:41:06;6.60;99.90
44359;DHT22;30077;52.474;13.326;2023-04-30T03:46:06;6.50;99.90
44359;DHT22;30077;52.474;13.326;2023-04-30T03:51:07;6.50;99.90
44359;DHT22;30077;52.474;13.326;2023-04-30T03:56:09;6.40;99.90
44359;DHT22;30077;52.474;13.326;2023-04-30T04:01:10;6.30;99.90
44359;DHT22;30077;52.474;13.326;2023-04-30T04:06:10;6.40;99.90
44359;DHT22;30077;52.474;13.326;2023-04-30T04:11:11;6.30;99.90
44359;DHT22;30077;52.474;13.326;2023-04-30T04:16:12;6.30;99.90
44359;DHT22;30077;52.474;13.326;2023-04-30T04:21:12;6.40;99.90
44359;DHT22;30077;52.474;13.326;2023-04-30T04:26:12;6.40;99.90
44359;DHT22;30077;52.474;13.326;2023-04-30T04:31:14;6.50;99.90
44359;DHT22;30077;52.474;13.326;2023-04-30T04:36:15;6.70;99.90
44359;DHT22;30077;52.474;13.326;2023-04-30T04:41:15;6.60;99.90
44359;DHT22;30077;52.474;13.326;2023-04-30T04:46:15;6.70;99.90
44359;DHT22;30077;52.474;13.326;2023-04-30T04:51:16;6.80;99.90
44359;DHT22;30077;52.474;13.326;2023-04-30T04:56:17;6.80;99.90
44359;DHT22;30077;52.474;13.326;2023-04-30T05:01:17;6.90;99.90
44359;DHT22;30077;52.474;13.326;2023-04-30T05:06:19;7.00;99.90
44359;DHT22;30077;52.474;13.326;2023-04-30T05:11:20;7.20;99.90
44359;DHT22;30077;52.474;13.326;2023-04-30T05:16:21;6.90;99.90
44359;DHT22;30077;52.474;13.326;2023-04-30T05:21:21;7.00;99.90
44359;DHT22;30077;52.474;13.326;2023-04-30T05:26:22;6.90;99.90
44359;DHT22;30077;52.474;13.326;2023-04-30T05:31:23;6.90;99.90
44359;DHT22;30077;52.474;13.326;2023-04-30T05:36:24;7.10;99.90
44359;DHT22;30077;52.474;13.326;2023-04-30T05:41:25;6.90;99.90
44359;DHT22;30077;52.474;13.326;2023-04-30T05:46:25;6.90;99.90
44359;DHT22;30077;52.474;13.326;2023-04-30T05:51:26;7.20;99.90
44359;DHT22;30077;52.474;13.326;2023-04-30T05:56:27;7.30;99.90
44359;DHT22;30077;52.474;13.326;2023-04-30T06:01:28;7.30;99.90
44359;DHT22;30077;52.474;13.326;2023-04-30T06:06:28;7.40;99.90
44359;DHT22;30077;52.474;13.326;2023-04-30T06:11:29;7.30;99.90
44359;DHT22;30077;52.474;13.326;2023-04-30T06:16:30;7.30;99.90
44359;DHT22;30077;52.474;13.326;2023-04-30T06:21:30;7.50;99.90
44359;DHT22;30077;52.474;13.326;2023-04-30T06:26:31;7.50;99.90
44359;DHT22;30077;52.474;13.326;2023-04-30T06:31:32;7.60;99.90
44359;DHT22;30077;52.474;13.326;2023-04-30T06:36:32;7.70;99.90
44359;DHT22;30077;52.474;13.326;2023-04-30T06:41:33;7.50;99.90
44359;DHT22;30077;52.474;13.326;2023-04-30T06:46:33;7.60;99.90
44359;DHT22;30077;52.474;13.326;2023-04-30T06:51:34;7.40;99.90
44359;DHT22;30077;52.474;13.326;2023-04-30T06:56:34;7.80;99.90
44359;DHT22;30077;52.474;13.326;2023-04-30T07:01:35;7.50;99.90
44359;DHT22;30077;52.474;13.326;2023-04-30T07:06:35;7.90;99.90
44359;DHT22;30077;52.474;13.326;2023-04-30T07:11:36;7.70;99.90
44359;DHT22;30077;52.474;13.326;2023-04-30T07:16:37;7.60;99.90
44359;DHT22;30077;52.474;13.326;2023-04-30T07:21:37;8.00;99.90
44359;DHT22;30077;52.474;13.326;2023-04-30T07:26:37;8.20;99.90
44359;DHT22;30077;52.474;13.326;2023-04-30T07:31:38;8.50;99.90
44359;DHT22;30077;52.474;13.326;2023-04-30T07:36:39;8.20;99.90
44359;DHT22;30077;52.474;13.326;2023-04-30T07:41:39;8.60;99.90
44359;DHT22;30077;52.474;13.326;2023-04-30T07:46:40;8.60;99.90
44359;DHT22;30077;52.474;13.326;2023-04-30T07:51:40;8.50;99.90
44359;DHT22;30077;52.474;13.326;2023-04-30T07:56:42;8.90;99.90
44359;DHT22;30077;52.474;13.326;2023-04-30T08:01:42;9.20;99.90
44359;DHT22;30077;52.474;13.326;2023-04-30T08:06:43;9.20;99.90
44359;DHT22;30077;52.474;13.326;2023-04-30T08:11:43;9.20;99.90
44359;DHT22;30077;52.474;13.326;2023-04-30T08:16:44;9.40;99.90
44359;DHT22;30077;52.474;13.326;2023-04-30T08:21:44;9.60;99.90
44359;DHT22;30077;52.474;13.326;2023-04-30T08:26:45;9.50;99.90
44359;DHT22;30077;52.474;13.326;2023-04-30T08:31:45;9.30;99.90
44359;DHT22;30077;52.474;13.326;2023-04-30T08:36:46;9.40;99.90
44359;DHT22;30077;52.474;13.326;2023-04-30T08:41:51;9.70;99.90
44359;DHT22;30077;52.474;13.326;2023-04-30T08:46:55;9.50;99.90
44359;DHT22;30077;52.474;13.326;2023-04-30T08:51:57;9.30;99.90
44359;DHT22;30077;52.474;13.326;2023-04-30T08:57:46;9.80;99.90
44359;DHT22;30077;52.474;13.326;2023-04-30T09:02:47;9.60;99.90
44359;DHT22;30077;52.474;13.326;2023-04-30T09:07:48;9.80;99.90
44359;DHT22;30077;52.474;13.326;2023-04-30T09:13:08;9.70;99.40
44359;DHT22;30077;52.474;13.326;2023-04-30T09:18:14;9.80;97.10
44359;DHT22;30077;52.474;13.326;2023-04-30T09:23:16;9.90;98.30
44359;DHT22;30077;52.474;13.326;2023-04-30T09:28:17;9.90;94.40
44359;DHT22;30077;52.474;13.326;2023-04-30T09:33:22;10.00;96.60
44359;DHT22;30077;52.474;13.326;2023-04-30T09:38:28;10.30;95.90
44359;DHT22;30077;52.474;13.326;2023-04-30T09:43:29;10.30;92.70
44359;DHT22;30077;52.474;13.326;2023-04-30T09:48:30;10.20;91.60
44359;DHT22;30077;52.474;13.326;2023-04-30T09:53:32;10.60;90.90
44359;DHT22;30077;52.474;13.326;2023-04-30T09:58:37;10.80;91.20
44359;DHT22;30077;52.474;13.326;2023-04-30T10:03:39;11.10;91.30
44359;DHT22;30077;52.474;13.326;2023-04-30T10:08:45;11.00;86.40
44359;DHT22;30077;52.474;13.326;2023-04-30T10:13:59;11.00;86.70
44359;DHT22;30077;52.474;13.326;2023-04-30T10:19:09;10.90;87.50
44359;DHT22;30077;52.474;13.326;2023-04-30T10:24:15;11.20;86.90
44359;DHT22;30077;52.474;13.326;2023-04-30T10:29:18;11.10;87.90
44359;DHT22;30077;52.474;13.326;2023-04-30T10:34:35;11.20;87.70
44359;DHT22;30077;52.474;13.326;2023-04-30T10:39:38;11.30;88.90
44359;DHT22;30077;52.474;13.326;2023-04-30T10:44:39;11.20;88.20
44359;DHT22;30077;52.474;13.326;2023-04-30T10:49:44;11.50;89.00
44359;DHT22;30077;52.474;13.326;2023-04-30T10:54:49;11.20;88.20
44359;DHT22;30077;52.474;13.326;2023-04-30T11:05:14;11.70;90.30
44359;DHT22;30077;52.474;13.326;2023-04-30T11:10:21;11.80;89.10
44359;DHT22;30077;52.474;13.326;2023-04-30T11:15:29;12.00;90.30
44359;DHT22;30077;52.474;13.326;2023-04-30T11:20:30;11.70;89.70
44359;DHT22;30077;52.474;13.326;2023-04-30T11:25:39;11.80;90.70
44359;DHT22;30077;52.474;13.326;2023-04-30T11:30:53;12.00;90.30
44359;DHT22;30077;52.474;13.326;2023-04-30T11:35:55;12.20;90.40
44359;DHT22;30077;52.474;13.326;2023-04-30T11:40:57;11.90;90.60
44359;DHT22;30077;52.474;13.326;2023-04-30T11:51:13;12.50;90.30
44359;DHT22;30077;52.474;13.326;2023-04-30T11:56:24;12.50;88.60
44359;DHT22;30077;52.474;13.326;2023-04-30T12:01:28;12.00;90.20
44359;DHT22;30077;52.474;13.326;2023-04-30T12:06:29;12.20;90.60
44359;DHT22;30077;52.474;13.326;2023-04-30T12:11:32;12.40;90.80
44359;DHT22;30077;52.474;13.326;2023-04-30T12:16:46;12.70;89.30
44359;DHT22;30077;52.474;13.326;2023-04-30T12:21:50;12.60;89.60
44359;DHT22;30077;52.474;13.326;2023-04-30T12:26:54;12.60;89.80
44359;DHT22;30077;52.474;13.326;2023-04-30T12:31:54;12.40;89.40
44359;DHT22;30077;52.474;13.326;2023-04-30T12:36:57;12.60;90.20
44359;DHT22;30077;52.474;13.326;2023-04-30T12:41:59;12.70;90.10
44359;DHT22;30077;52.474;13.326;2023-04-30T12:47:06;12.70;90.80
44359;DHT22;30077;52.474;13.326;2023-04-30T12:52:08;12.50;90.40
44359;DHT22;30077;52.474;13.326;2023-04-30T12:57:11;12.80;90.60
44359;DHT22;30077;52.474;13.326;2023-04-30T13:02:13;12.70;90.30
44359;DHT22;30077;52.474;13.326;2023-04-30T13:07:13;12.70;90.60
44359;DHT22;30077;52.474;13.326;2023-04-30T13:12:14;12.90;89.90
44359;DHT22;30077;52.474;13.326;2023-04-30T13:17:15;12.90;88.10
44359;DHT22;30077;52.474;13.326;2023-04-30T13:22:16;12.90;85.30
44359;DHT22;30077;52.474;13.326;2023-04-30T13:27:17;12.90;83.20
44359;DHT22;30077;52.474;13.326;2023-04-30T13:32:17;13.00;81.50
44359;DHT22;30077;52.474;13.326;2023-04-30T13:37:18;13.30;82.20
44359;DHT22;30077;52.474;13.326;2023-04-30T13:42:19;13.20;82.90
44359;DHT22;30077;52.474;13.326;2023-04-30T13:47:21;13.10;81.90
44359;DHT22;30077;52.474;13.326;2023-04-30T13:52:21;13.20;83.60
44359;DHT22;30077;52.474;13.326;2023-04-30T13:57:23;13.40;83.80
44359;DHT22;30077;52.474;13.326;2023-04-30T14:02:25;13.30;83.10
44359;DHT22;30077;52.474;13.326;2023-04-30T14:07:27;13.20;83.40
44359;DHT22;30077;52.474;13.326;2023-04-30T14:12:28;13.30;81.40
44359;DHT22;30077;52.474;13.326;2023-04-30T14:17:29;13.20;81.70
44359;DHT22;30077;52.474;13.326;2023-04-30T14:22:30;13.30;83.70
44359;DHT22;30077;52.474;13.326;2023-04-30T14:27:34;13.30;84.40
44359;DHT22;30077;52.474;13.326;2023-04-30T14:32:34;13.40;83.50
44359;DHT22;30077;52.474;13.326;2023-04-30T14:37:36;13.10;84.50
44359;DHT22;30077;52.474;13.326;2023-04-30T14:42:36;13.50;84.70
44359;DHT22;30077;52.474;13.326;2023-04-30T14:47:37;13.70;84.30
44359;DHT22;30077;52.474;13.326;2023-04-30T14:52:38;13.70;83.70
44359;DHT22;30077;52.474;13.326;2023-04-30T14:57:39;13.70;84.50
44359;DHT22;30077;52.474;13.326;2023-04-30T15:02:40;13.90;83.60
44359;DHT22;30077;52.474;13.326;2023-04-30T15:07:40;14.00;83.90
44359;DHT22;30077;52.474;13.326;2023-04-30T15:12:41;14.00;84.30
44359;DHT22;30077;52.474;13.326;2023-04-30T15:17:41;14.20;83.80
44359;DHT22;30077;52.474;13.326;2023-04-30T15:22:42;14.20;83.30
44359;DHT22;30077;52.474;13.326;2023-04-30T15:27:43;13.90;84.00
44359;DHT22;30077;52.474;13.326;2023-04-30T15:32:43;13.70;85.60
44359;DHT22;30077;52.474;13.326;2023-04-30T15:37:44;13.60;84.50
44359;DHT22;30077;52.474;13.326;2023-04-30T15:42:44;13.70;82.90
44359;DHT22;30077;52.474;13.326;2023-04-30T15:47:45;13.70;84.50
44359;DHT22;30077;52.474;13.326;2023-04-30T15:52:46;13.80;83.60
44359;DHT22;30077;52.474;13.326;2023-04-30T15:57:46;13.90;83.80
44359;DHT22;30077;52.474;13.326;2023-04-30T16:02:48;13.70;83.90
44359;DHT22;30077;52.474;13.326;2023-04-30T16:07:50;13.60;83.60
44359;DHT22;30077;52.474;13.326;2023-04-30T16:12:51;13.80;84.00
44359;DHT22;30077;52.474;13.326;2023-04-30T16:17:53;14.10;83.50
44359;DHT22;30077;52.474;13.326;2023-04-30T16:22:54;14.20;83.60
44359;DHT22;30077;52.474;13.326;2023-04-30T16:27:55;14.90;87.70
44359;DHT22;30077;52.474;13.326;2023-04-30T16:32:56;15.10;81.60
44359;DHT22;30077;52.474;13.326;2023-04-30T16:37:56;15.40;81.00
44359;DHT22;30077;52.474;13.326;2023-04-30T16:42:57;16.00;78.40
44359;DHT22;30077;52.474;13.326;2023-04-30T16:47:59;16.00;78.70
44359;DHT22;30077;52.474;13.326;2023-04-30T16:53:00;15.70;79.40
44359;DHT22;30077;52.474;13.326;2023-04-30T16:58:01;16.00;78.70
44359;DHT22;30077;52.474;13.326;2023-04-30T17:03:01;16.00;78.10
44359;DHT22;30077;52.474;13.326;2023-04-30T17:08:02;15.70;77.90
44359;DHT22;30077;52.474;13.326;2023-04-30T17:13:02;15.10;79.80
44359;DHT22;30077;52.474;13.326;2023-04-30T17:18:04;14.90;80.20
44359;DHT22;30077;52.474;13.326;2023-04-30T17:23:05;14.80;80.20
44359;DHT22;30077;52.474;13.326;2023-04-30T17:28:06;14.80;79.60
44359;DHT22;30077;52.474;13.326;2023-04-30T17:33:07;14.40;81.60
44359;DHT22;30077;52.474;13.326;2023-04-30T17:38:07;14.10;82.00
44359;DHT22;30077;52.474;13.326;2023-04-30T17:43:08;14.10;83.20
44359;DHT22;30077;52.474;13.326;2023-04-30T17:48:09;13.90;83.40
44359;DHT22;30077;52.474;13.326;2023-04-30T17:53:09;13.70;84.60
44359;DHT22;30077;52.474;13.326;2023-04-30T17:58:10;13.60;84.70
44359;DHT22;30077;52.474;13.326;2023-04-30T18:03:10;13.40;85.20
44359;DHT22;30077;52.474;13.326;2023-04-30T18:08:11;13.20;85.90
44359;DHT22;30077;52.474;13.326;2023-04-30T18:13:11;13.00;85.90
44359;DHT22;30077;52.474;13.326;2023-04-30T18:18:12;12.80;84.60
44359;DHT22;30077;52.474;13.326;2023-04-30T18:23:13;12.70;84.30
44359;DHT22;30077;52.474;13.326;2023-04-30T18:28:14;12.70;83.60
44359;DHT22;30077;52.474;13.326;2023-04-30T18:33:15;12.60;83.20
44359;DHT22;30077;52.474;13.326;2023-04-30T18:38:15;12.50;83.20
44359;DHT22;30077;52.474;13.326;2023-04-30T18:43:16;12.30;83.20
44359;DHT22;30077;52.474;13.326;2023-04-30T18:48:17;12.30;84.30
44359;DHT22;30077;52.474;13.326;2023-04-30T18:53:22;12.10;83.90
44359;DHT22;30077;52.474;13.326;2023-04-30T18:58:24;12.00;84.30
44359;DHT22;30077;52.474;13.326;2023-04-30T19:03:24;11.90;84.20
44359;DHT22;30077;52.474;13.326;2023-04-30T19:08:25;11.80;84.60
44359;DHT22;30077;52.474;13.326;2023-04-30T19:13:25;11.70;84.80
44359;DHT22;30077;52.474;13.326;2023-04-30T19:18:26;11.60;84.80
44359;DHT22;30077;52.474;13.326;2023-04-30T19:23:27;11.30;85.60
44359;DHT22;30077;52.474;13.326;2023-04-30T19:28:29;11.20;87.90
44359;DHT22;30077;52.474;13.326;2023-04-30T19:33:30;11.10;90.00
44359;DHT22;30077;52.474;13.326;2023-04-30T19:38:35;10.90;92.10
44359;DHT22;30077;52.474;13.326;2023-04-30T19:43:36;10.80;94.00
44359;DHT22;30077;52.474;13.326;2023-04-30T19:48:36;10.60;95.80
44359;DHT22;30077;52.474;13.326;2023-04-30T19:53:37;10.60;97.00
44359;DHT22;30077;52.474;13.326;2023-04-30T19:58:39;10.50;98.30
44359;DHT22;30077;52.474;13.326;2023-04-30T20:03:43;10.50;99.20
44359;DHT22;30077;52.474;13.326;2023-04-30T20:08:43;10.30;99.90
44359;DHT22;30077;52.474;13.326;2023-04-30T20:13:44;10.30;99.90
44359;DHT22;30077;52.474;13.326;2023-04-30T20:18:45;10.20;99.90
44359;DHT22;30077;52.474;13.326;2023-04-30T20:23:46;10.10;99.90
44359;DHT22;30077;52.474;13.326;2023-04-30T20:28:47;10.00;99.90
44359;DHT22;30077;52.474;13.326;2023-04-30T20:33:47;9.90;99.90
44359;DHT22;30077;52.474;13.326;2023-04-30T20:38:48;9.90;99.90
44359;DHT22;30077;52.474;13.326;2023-04-30T20:43:48;9.90;99.90
44359;DHT22;30077;52.474;13.326;2023-04-30T20:48:51;9.90;99.90
44359;DHT22;30077;52.474;13.326;2023-04-30T20:53:53;9.80;99.90
44359;DHT22;30077;52.474;13.326;2023-04-30T20:58:54;9.70;99.90
44359;DHT22;30077;52.474;13.326;2023-04-30T21:03:55;9.70;99.90
44359;DHT22;30077;52.474;13.326;2023-04-30T21:08:55;9.70;99.90
44359;DHT22;30077;52.474;13.326;2023-04-30T21:13:56;9.70;99.90
44359;DHT22;30077;52.474;13.326;2023-04-30T21:18:57;9.60;99.90
44359;DHT22;30077;52.474;13.326;2023-04-30T21:23:57;9.50;99.90
44359;DHT22;30077;52.474;13.326;2023-04-30T21:29:00;9.40;99.90
44359;DHT22;30077;52.474;13.326;2023-04-30T21:34:02;9.50;99.90
44359;DHT22;30077;52.474;13.326;2023-04-30T21:39:03;9.40;99.90
44359;DHT22;30077;52.474;13.326;2023-04-30T21:44:03;9.40;99.90
44359;DHT22;30077;52.474;13.326;2023-04-30T21:49:04;9.40;99.90
44359;DHT22;30077;52.474;13.326;2023-04-30T21:54:04;9.70;99.90
44359;DHT22;30077;52.474;13.326;2023-04-30T21:59:05;9.70;99.90
44359;DHT22;30077;52.474;13.326;2023-04-30T22:04:05;9.50;99.90
44359;DHT22;30077;52.474;13.326;2023-04-30T22:09:06;9.40;99.90
44359;DHT22;30077;52.474;13.326;2023-04-30T22:14:06;9.20;99.90
44359;DHT22;30077;52.474;13.326;2023-04-30T22:19:07;9.10;99.90
44359;DHT22;30077;52.474;13.326;2023-04-30T22:24:08;9.00;99.90
44359;DHT22;30077;52.474;13.326;2023-04-30T22:29:08;9.00;99.90
44359;DHT22;30077;52.474;13.326;2023-04-30T22:34:09;8.90;99.90
44359;DHT22;30077;52.474;13.326;2023-04-30T22:39:10;8.90;99.90
44359;DHT22;30077;52.474;13.326;2023-04-30T22:44:15;8.80;99.90
44359;DHT22;30077;52.474;13.326;2023-04-30T22:49:16;8.70;99.90
44359;DHT22;30077;52.474;13.326;2023-04-30T22:54:17;8.70;99.90
44359;DHT22;30077;52.474;13.326;2023-04-30T22:59:17;8.60;99.90
44359;DHT22;30077;52.474;13.326;2023-04-30T23:04:18;8.50;99.90
44359;DHT22;30077;52.474;13.326;2023-04-30T23:09:18;8.50;99.90
44359;DHT22;30077;52.474;13.326;2023-04-30T23:14:19;8.40;99.90
44359;DHT22;30077;52.474;13.326;2023-04-30T23:19:19;8.40;99.90
44359;DHT22;30077;52.474;13.326;2023-04-30T23:24:20;8.40;99.90
44359;DHT22;30077;52.474;13.326;2023-04-30T23:29:20;8.40;99.90
44359;DHT22;30077;52.474;13.326;2023-04-30T23:34:21;8.30;99.90
44359;DHT22;30077;52.474;13.326;2023-04-30T23:39:21;8.30;99.90
44359;DHT22;30077;52.474;13.326;2023-04-30T23:44:23;8.20;99.90
44359;DHT22;30077;52.474;13.326;2023-04-30T23:49:24;8.20;99.90
44359;DHT22;30077;52.474;13.326;2023-04-30T23:54:24;8.10;99.90
44359;DHT22;30077;52.474;13.326;2023-04-30T23:59:25;8.10;99.90
